Time;durP1;ratioP1;P1;durP2;ratioP2;P2;SDS_P1;SDS_P2;PMS_P1;PMS_P2;Temp;Humidity;BMP_temperature;BMP_pressure;BME280_temperature;BME280_humidity;BME280_pressure;Samples;Min_cycle;Max_cycle;Signal;HPM_P1;HPM_P2
2023/09/30 00:00:58;;;;;;;27.60;14.65;;;;;;;10.29;100.00;102398.44;5072805;28;20127;-68
2023/09/30 00:03:24;;;;;;;28.70;14.77;;;;;;;10.36;100.00;102397.81;5072841;28;20020;-68
2023/09/30 00:05:49;;;;;;;28.05;15.00;;;;;;;10.35;100.00;102403.94;5072813;28;20417;-68
2023/09/30 00:08:15;;;;;;;28.20;14.60;;;;;;;10.34;100.00;102399.50;5072555;28;20032;-67
2023/09/30 00:10:40;;;;;;;29.30;15.90;;;;;;;10.38;100.00;102397.84;5072687;28;20038;-68
2023/09/30 00:13:08;;;;;;;28.15;15.18;;;;;;;10.38;100.00;102393.47;5072496;28;20033;-68
2023/09/30 00:15:34;;;;;;;28.23;15.32;;;;;;;10.40;100.00;102407.63;5068700;28;20116;-68
2023/09/30 00:18:01;;;;;;;28.95;15.20;;;;;;;10.38;100.00;102411.97;5072757;28;20037;-68
2023/09/30 00:20:27;;;;;;;27.58;14.77;;;;;;;10.38;100.00;102406.69;5071159;28;20060;-68
2023/09/30 00:22:52;;;;;;;28.92;16.58;;;;;;;10.45;100.00;102413.03;5072582;28;20033;-68
2023/09/30 00:25:18;;;;;;;27.02;14.77;;;;;;;10.46;100.00;102410.44;5072375;28;20033;-65
2023/09/30 00:27:43;;;;;;;27.80;16.15;;;;;;;10.49;100.00;102400.81;5072252;28;20118;-67
2023/09/30 00:30:09;;;;;;;30.02;16.55;;;;;;;10.52;100.00;102399.16;5074276;28;20118;-67
2023/09/30 00:32:34;;;;;;;29.55;16.63;;;;;;;10.53;100.00;102398.31;5076826;28;20150;-67
2023/09/30 00:35:03;;;;;;;28.40;15.82;;;;;;;10.58;100.00;102398.44;5076399;28;20023;-67
2023/09/30 00:37:28;;;;;;;31.48;16.75;;;;;;;10.59;100.00;102410.81;5076496;28;20127;-66
2023/09/30 00:39:53;;;;;;;29.52;16.23;;;;;;;10.53;100.00;102427.41;5076292;28;20047;-68
2023/09/30 00:42:20;;;;;;;30.30;16.80;;;;;;;10.52;100.00;102433.53;5076201;28;20025;-67
2023/09/30 00:44:46;;;;;;;29.73;16.15;;;;;;;10.50;100.00;102431.69;5076412;28;20024;-67
2023/09/30 00:47:12;;;;;;;28.08;16.25;;;;;;;10.51;100.00;102421.16;5076174;28;20426;-67
2023/09/30 00:49:38;;;;;;;29.77;16.73;;;;;;;10.51;100.00;102414.97;5076539;28;20032;-65
2023/09/30 00:52:04;;;;;;;28.73;16.23;;;;;;;10.50;100.00;102411.44;5076396;28;20029;-66
2023/09/30 00:54:30;;;;;;;30.85;16.98;;;;;;;10.56;100.00;102402.78;5075978;28;20434;-66
2023/09/30 00:56:56;;;;;;;29.27;16.95;;;;;;;10.60;100.00;102415.22;5075898;28;20054;-67
2023/09/30 00:59:21;;;;;;;29.02;17.15;;;;;;;10.60;100.00;102425.81;5076132;28;20495;-66
2023/09/30 01:01:47;;;;;;;29.08;16.83;;;;;;;10.59;100.00;102422.28;5075804;28;20073;-67
2023/09/30 01:04:14;;;;;;;28.88;16.80;;;;;;;10.57;100.00;102423.06;5075846;28;20033;-66
2023/09/30 01:06:40;;;;;;;28.90;16.40;;;;;;;10.50;100.00;102431.69;5076150;28;20452;-66
2023/09/30 01:09:07;;;;;;;29.20;16.90;;;;;;;10.46;100.00;102428.94;5075799;28;20021;-66
2023/09/30 01:11:32;;;;;;;29.33;16.80;;;;;;;10.39;100.00;102426.09;5071572;28;20074;-68
2023/09/30 01:13:57;;;;;;;30.77;16.88;;;;;;;10.35;100.00;102435.66;5074448;28;20426;-66
2023/09/30 01:16:23;;;;;;;30.42;17.15;;;;;;;10.28;100.00;102436.28;5075574;28;20442;-66
2023/09/30 01:18:49;;;;;;;31.27;17.25;;;;;;;10.28;100.00;102441.56;5075528;28;20450;-62
2023/09/30 01:21:15;;;;;;;30.08;17.00;;;;;;;10.22;100.00;102449.31;5075650;28;20029;-68
2023/09/30 01:23:43;;;;;;;29.02;17.10;;;;;;;10.14;100.00;102457.00;5075349;28;20369;-69
2023/09/30 01:26:15;;;;;;;29.75;17.60;;;;;;;10.15;100.00;102458.81;5075509;28;20032;-68
2023/09/30 01:28:40;;;;;;;31.05;17.25;;;;;;;10.06;100.00;102467.34;5075627;28;20068;-69
2023/09/30 01:31:06;;;;;;;31.25;17.52;;;;;;;9.91;100.00;102467.72;5075437;28;20056;-66
2023/09/30 01:33:32;;;;;;;30.92;16.77;;;;;;;9.93;100.00;102470.41;5075320;28;20024;-68
2023/09/30 01:35:59;;;;;;;29.85;17.15;;;;;;;9.88;100.00;102472.00;5075444;28;20037;-68
2023/09/30 01:38:25;;;;;;;30.27;17.63;;;;;;;9.87;100.00;102472.84;5075163;28;20580;-68
2023/09/30 01:40:50;;;;;;;31.90;18.60;;;;;;;9.88;100.00;102469.38;5073801;28;20111;-67
2023/09/30 01:43:16;;;;;;;31.27;18.73;;;;;;;9.93;100.00;102454.56;5075225;28;20103;-68
2023/09/30 01:45:42;;;;;;;31.02;18.80;;;;;;;9.85;100.00;102446.38;5073821;28;20036;-68
2023/09/30 01:48:10;;;;;;;32.50;19.05;;;;;;;9.85;100.00;102448.13;5073959;28;20032;-68
2023/09/30 01:50:39;;;;;;;32.95;18.67;;;;;;;9.82;100.00;102438.38;5071496;28;20032;-68
2023/09/30 01:53:09;;;;;;;33.55;19.55;;;;;;;9.85;100.00;102437.56;5071095;28;20032;-67
2023/09/30 01:55:35;;;;;;;33.90;19.08;;;;;;;9.83;100.00;102436.59;5071126;28;20024;-68
2023/09/30 01:58:00;;;;;;;32.72;19.33;;;;;;;9.80;100.00;102439.16;5075050;28;20028;-68
2023/09/30 02:00:28;;;;;;;33.30;19.65;;;;;;;9.84;100.00;102443.69;5074884;28;20111;-68
2023/09/30 02:02:54;;;;;;;31.90;19.08;;;;;;;9.82;100.00;102445.41;5074675;28;20039;-69
2023/09/30 02:05:19;;;;;;;34.88;20.13;;;;;;;9.82;100.00;102448.03;5074908;28;20376;-67
2023/09/30 02:07:45;;;;;;;34.65;20.10;;;;;;;9.79;100.00;102446.19;5074672;28;20045;-67
2023/09/30 02:10:10;;;;;;;33.65;20.02;;;;;;;9.84;100.00;102454.25;5074616;28;20479;-66
2023/09/30 02:12:37;;;;;;;35.25;20.40;;;;;;;9.85;100.00;102456.94;5073520;28;20028;-64
2023/09/30 02:15:03;;;;;;;34.03;20.92;;;;;;;9.83;100.00;102460.38;5074493;28;20028;-65
2023/09/30 02:17:28;;;;;;;35.53;21.45;;;;;;;9.82;100.00;102461.25;5074652;28;20368;-66
2023/09/30 02:19:54;;;;;;;35.40;20.58;;;;;;;9.74;100.00;102466.25;5074688;28;20091;-66
2023/09/30 02:22:20;;;;;;;34.25;20.75;;;;;;;9.72;100.00;102457.41;5074538;28;20036;-67
2023/09/30 02:24:46;;;;;;;34.35;20.00;;;;;;;9.71;100.00;102461.78;5074508;28;20388;-66
2023/09/30 02:27:11;;;;;;;35.92;20.90;;;;;;;9.75;100.00;102447.81;5074130;28;20403;-67
2023/09/30 02:29:36;;;;;;;34.42;21.10;;;;;;;9.75;100.00;102445.19;5074355;28;20107;-65
2023/09/30 02:32:02;;;;;;;36.95;21.35;;;;;;;9.79;100.00;102442.66;5074603;28;20093;-65
2023/09/30 02:34:30;;;;;;;36.30;21.08;;;;;;;9.74;100.00;102440.75;5074173;28;20030;-63
2023/09/30 02:36:55;;;;;;;35.30;20.98;;;;;;;9.70;100.00;102449.44;5074176;28;20387;-65
2023/09/30 02:39:21;;;;;;;38.15;22.15;;;;;;;9.66;100.00;102447.53;5074229;28;20028;-61
2023/09/30 02:41:46;;;;;;;36.83;21.88;;;;;;;9.69;100.00;102458.19;5074277;28;20111;-64
2023/09/30 02:44:12;;;;;;;36.42;22.42;;;;;;;9.66;100.00;102444.88;5073816;28;20379;-63
2023/09/30 02:46:37;;;;;;;38.10;21.92;;;;;;;9.65;100.00;102437.78;5074156;28;20395;-64
2023/09/30 02:49:03;;;;;;;36.78;21.73;;;;;;;9.69;100.00;102442.34;5074050;28;20120;-64
2023/09/30 02:51:30;;;;;;;37.55;22.10;;;;;;;9.66;100.00;102436.97;5073354;28;20053;-62
2023/09/30 02:53:55;;;;;;;36.67;23.10;;;;;;;9.70;100.00;102433.56;5074183;28;20383;-61
2023/09/30 02:56:23;;;;;;;37.65;21.77;;;;;;;9.64;100.00;102433.38;5073511;28;20028;-66
2023/09/30 02:58:49;;;;;;;36.92;22.35;;;;;;;9.65;100.00;102437.78;5073605;28;20120;-61
2023/09/30 03:01:17;;;;;;;37.20;21.63;;;;;;;9.64;100.00;102443.94;5073738;28;20112;-65
2023/09/30 03:03:44;;;;;;;39.67;21.90;;;;;;;9.73;100.00;102438.97;5073567;28;20442;-65
2023/09/30 03:06:10;;;;;;;38.30;22.77;;;;;;;9.76;100.00;102454.03;5073435;28;20467;-64
2023/09/30 03:08:36;;;;;;;38.75;22.00;;;;;;;9.81;100.00;102448.88;5073865;28;20135;-62
2023/09/30 03:11:02;;;;;;;37.80;22.58;;;;;;;9.91;100.00;102449.22;5073356;28;20492;-66
2023/09/30 03:13:27;;;;;;;38.45;22.38;;;;;;;9.97;100.00;102456.44;5073294;28;20119;-65
2023/09/30 03:15:52;;;;;;;36.95;21.45;;;;;;;9.95;100.00;102458.16;5073480;28;20028;-65
2023/09/30 03:18:22;;;;;;;37.47;22.00;;;;;;;10.00;100.00;102461.81;5073258;28;20071;-64
2023/09/30 03:20:50;;;;;;;37.20;22.00;;;;;;;10.07;100.00;102455.91;5073276;28;20047;-61
2023/09/30 03:23:15;;;;;;;35.90;21.63;;;;;;;10.08;100.00;102447.13;5073403;28;20025;-62
2023/09/30 03:25:42;;;;;;;37.75;21.60;;;;;;;10.08;100.00;102440.97;5073080;28;20514;-63
2023/09/30 03:28:07;;;;;;;36.03;20.90;;;;;;;10.05;100.00;102425.91;5073075;28;20515;-63
2023/09/30 03:30:33;;;;;;;35.47;20.75;;;;;;;10.02;100.00;102430.16;5073535;28;20029;-63
2023/09/30 03:32:58;;;;;;;37.15;21.85;;;;;;;10.00;100.00;102429.25;5073232;28;20387;-64
2023/09/30 03:35:24;;;;;;;37.53;21.85;;;;;;;9.95;100.00;102424.69;5073185;28;20031;-64
2023/09/30 03:37:50;;;;;;;37.50;21.30;;;;;;;9.95;100.00;102435.28;5073046;28;20107;-65
2023/09/30 03:40:19;;;;;;;37.05;22.08;;;;;;;9.95;100.00;102424.69;5072903;28;20024;-63
2023/09/30 03:42:46;;;;;;;37.28;21.52;;;;;;;9.91;100.00;102432.47;5072835;28;20131;-62
2023/09/30 03:45:12;;;;;;;36.15;21.20;;;;;;;9.90;100.00;102431.59;5071767;28;20486;-66
2023/09/30 03:47:38;;;;;;;38.65;22.23;;;;;;;9.89;100.00;102439.47;5072788;28;20472;-69
2023/09/30 03:50:04;;;;;;;36.15;22.10;;;;;;;9.87;100.00;102441.16;5072886;28;20087;-68
2023/09/30 03:52:33;;;;;;;37.13;21.65;;;;;;;9.83;100.00;102439.25;5073113;28;20024;-67
2023/09/30 03:54:59;;;;;;;37.15;22.20;;;;;;;9.86;100.00;102440.25;5072697;28;20479;-64
2023/09/30 03:57:24;;;;;;;39.40;21.98;;;;;;;9.87;100.00;102435.88;5072650;28;20035;-68
2023/09/30 03:59:50;;;;;;;39.03;22.40;;;;;;;9.84;100.00;102428.72;5073104;28;20029;-68
2023/09/30 04:02:15;;;;;;;38.05;22.83;;;;;;;9.82;100.00;102422.50;5072563;28;20115;-69
2023/09/30 04:04:40;;;;;;;38.72;22.80;;;;;;;9.84;100.00;102430.50;5071957;28;20119;-67
2023/09/30 04:07:07;;;;;;;37.75;22.60;;;;;;;9.85;100.00;102440.22;5072641;28;20071;-67
2023/09/30 04:09:32;;;;;;;40.80;22.60;;;;;;;9.82;100.00;102438.38;5072481;28;20074;-68
2023/09/30 04:11:58;;;;;;;40.38;23.13;;;;;;;9.84;100.00;102431.38;5072669;28;20383;-68
2023/09/30 04:14:24;;;;;;;39.30;22.92;;;;;;;9.81;100.00;102439.19;5072543;28;20567;-69
2023/09/30 04:16:50;;;;;;;40.35;23.25;;;;;;;9.83;100.00;102433.97;5072691;28;20115;-67
2023/09/30 04:19:15;;;;;;;39.65;23.55;;;;;;;9.81;100.00;102436.56;5072772;28;20056;-68
2023/09/30 04:21:41;;;;;;;38.85;22.63;;;;;;;9.76;100.00;102433.78;5072316;28;20025;-69
2023/09/30 04:24:06;;;;;;;39.13;23.10;;;;;;;9.75;100.00;102429.31;5072561;28;20036;-67
2023/09/30 04:26:32;;;;;;;40.28;22.85;;;;;;;9.70;100.00;102438.84;5072342;28;20052;-69
2023/09/30 04:28:57;;;;;;;40.95;24.25;;;;;;;9.72;100.00;102431.00;5072393;28;20120;-68
2023/09/30 04:31:23;;;;;;;39.80;23.50;;;;;;;9.71;100.00;102431.81;5072299;28;20357;-67
2023/09/30 04:33:52;;;;;;;40.13;23.00;;;;;;;9.65;100.00;102426.34;5072519;28;20067;-63
2023/09/30 04:36:19;;;;;;;39.42;22.52;;;;;;;9.65;100.00;102434.28;5072265;28;20077;-63
2023/09/30 04:38:44;;;;;;;42.15;24.15;;;;;;;9.62;100.00;102440.34;5071018;28;20044;-66
2023/09/30 04:41:09;;;;;;;43.45;23.75;;;;;;;9.56;100.00;102448.06;5072519;28;20017;-66
2023/09/30 04:43:35;;;;;;;42.97;24.58;;;;;;;9.52;100.00;102446.16;5072193;28;20395;-65
2023/09/30 04:46:01;;;;;;;41.95;23.88;;;;;;;9.52;100.00;102449.72;5072109;28;20032;-65
2023/09/30 04:48:26;;;;;;;42.78;24.95;;;;;;;9.55;100.00;102449.81;5072654;28;20063;-67
2023/09/30 04:50:52;;;;;;;43.97;24.98;;;;;;;9.47;100.00;102448.63;5072172;28;20028;-67
2023/09/30 04:53:17;;;;;;;41.80;23.73;;;;;;;9.45;100.00;102446.78;5072272;28;20057;-64
2023/09/30 04:55:44;;;;;;;43.03;24.50;;;;;;;9.41;100.00;102444.03;5072101;28;20029;-64
2023/09/30 04:58:09;;;;;;;44.97;24.63;;;;;;;9.41;100.00;102451.97;5072046;28;20029;-67
2023/09/30 05:00:35;;;;;;;45.05;24.67;;;;;;;9.41;100.00;102453.72;5068451;28;20028;-66
2023/09/30 05:03:00;;;;;;;46.28;25.60;;;;;;;9.37;100.00;102460.63;5072084;28;20024;-65
2023/09/30 05:05:26;;;;;;;44.63;25.15;;;;;;;9.31;100.00;102457.75;5071968;28;20502;-65
2023/09/30 05:07:51;;;;;;;41.60;23.92;;;;;;;9.30;100.00;102466.50;5072099;28;20127;-62
2023/09/30 05:10:17;;;;;;;45.92;25.23;;;;;;;9.30;100.00;102463.00;5072069;28;20029;-64
2023/09/30 05:12:45;;;;;;;48.55;25.55;;;;;;;9.32;100.00;102463.94;5071952;28;20387;-64
2023/09/30 05:15:15;;;;;;;46.70;25.23;;;;;;;9.29;100.00;102461.19;5073345;28;20490;-64
2023/09/30 05:17:45;;;;;;;44.35;24.55;;;;;;;9.27;100.00;102461.13;5075596;28;20374;-68
2023/09/30 05:20:12;;;;;;;45.55;25.10;;;;;;;9.26;100.00;102459.31;5074296;28;20036;-67
2023/09/30 05:22:38;;;;;;;48.47;26.17;;;;;;;9.23;100.00;102460.16;5075690;28;20031;-68
2023/09/30 05:25:06;;;;;;;45.70;24.38;;;;;;;9.22;100.00;102460.97;5071767;28;20045;-68
2023/09/30 05:27:32;;;;;;;47.53;26.08;;;;;;;9.19;100.00;102466.16;5075323;28;20076;-68
2023/09/30 05:29:57;;;;;;;46.85;25.48;;;;;;;9.23;100.00;102469.78;5075607;28;20056;-67
2023/09/30 05:32:22;;;;;;;47.10;25.55;;;;;;;9.21;100.00;102467.09;5075310;28;20107;-68
2023/09/30 05:34:48;;;;;;;45.50;25.52;;;;;;;9.22;100.00;102473.28;5075195;28;20037;-66
2023/09/30 05:37:14;;;;;;;48.47;25.23;;;;;;;9.21;100.00;102466.19;5075310;28;20029;-67
2023/09/30 05:39:40;;;;;;;45.13;25.23;;;;;;;9.25;100.00;102471.63;5075560;28;20383;-65
2023/09/30 05:42:06;;;;;;;49.25;26.65;;;;;;;9.34;100.00;102476.34;5070993;28;20064;-68
2023/09/30 05:44:32;;;;;;;47.95;26.42;;;;;;;9.33;100.00;102479.81;5075273;28;20035;-68
2023/09/30 05:46:59;;;;;;;48.22;26.40;;;;;;;9.39;100.00;102487.06;5075135;28;20411;-68
2023/09/30 05:49:25;;;;;;;48.08;25.65;;;;;;;9.49;100.00;102489.19;5075289;28;20051;-65
2023/09/30 05:51:50;;;;;;;48.47;26.50;;;;;;;9.57;100.00;102479.78;5075196;28;20063;-68
2023/09/30 05:54:16;;;;;;;49.95;26.38;;;;;;;9.67;100.00;102486.28;5074839;28;20033;-68
2023/09/30 05:56:43;;;;;;;51.05;27.20;;;;;;;9.73;100.00;102481.22;5074802;28;20170;-68
2023/09/30 05:59:08;;;;;;;48.55;26.77;;;;;;;9.74;100.00;102487.38;5075284;28;20048;-68
2023/09/30 06:01:35;;;;;;;50.85;26.08;;;;;;;9.82;100.00;102490.31;5075019;28;20605;-69
2023/09/30 06:04:01;;;;;;;47.40;25.70;;;;;;;9.84;100.00;102492.13;5075020;28;20036;-66
2023/09/30 06:06:29;;;;;;;52.10;26.67;;;;;;;9.88;100.00;102485.22;5074784;28;20021;-68
2023/09/30 06:08:58;;;;;;;50.45;26.13;;;;;;;9.93;100.00;102484.53;5074926;28;20052;-68
2023/09/30 06:11:28;;;;;;;50.75;26.85;;;;;;;9.94;100.00;102490.69;5074495;28;20021;-68
2023/09/30 06:14:01;;;;;;;47.15;25.83;;;;;;;9.98;100.00;102497.00;5073817;28;20025;-69
2023/09/30 06:16:27;;;;;;;48.72;26.38;;;;;;;9.96;100.00;102489.03;5074617;28;20017;-69
2023/09/30 06:18:53;;;;;;;48.85;25.48;;;;;;;9.96;100.00;102491.66;5074533;28;20048;-69
2023/09/30 06:21:20;;;;;;;49.85;26.08;;;;;;;9.98;100.00;102489.97;5073346;28;20441;-69
2023/09/30 06:23:51;;;;;;;48.30;25.27;;;;;;;10.03;100.00;102488.38;5074588;28;20487;-62
2023/09/30 06:26:17;;;;;;;50.05;25.13;;;;;;;10.05;100.00;102481.38;5073542;28;20033;-65
2023/09/30 06:28:42;;;;;;;44.47;25.10;;;;;;;10.06;100.00;102480.56;5074131;28;20033;-62
2023/09/30 06:31:09;;;;;;;47.80;25.08;;;;;;;10.12;100.00;102483.38;5074382;28;20475;-67
2023/09/30 06:33:39;;;;;;;48.70;25.98;;;;;;;10.19;100.00;102488.84;5074219;28;20035;-63
2023/09/30 06:36:13;;;;;;;46.70;25.33;;;;;;;10.21;100.00;102495.09;5074305;28;20028;-65
2023/09/30 06:38:39;;;;;;;47.33;25.00;;;;;;;10.27;100.00;102493.53;5070653;28;20040;-66
2023/09/30 06:41:05;;;;;;;48.08;25.23;;;;;;;10.28;100.00;102491.78;5074015;28;20028;-62
2023/09/30 06:43:30;;;;;;;45.28;24.52;;;;;;;10.29;100.00;102493.59;5073916;28;20384;-66
2023/09/30 06:45:56;;;;;;;44.97;24.58;;;;;;;10.36;100.00;102500.00;5074385;28;20028;-66
2023/09/30 06:48:21;;;;;;;44.20;24.27;;;;;;;10.40;100.00;102499.25;5073947;28;20025;-65
2023/09/30 06:50:48;;;;;;;46.80;24.95;;;;;;;10.49;100.00;102504.81;5073909;28;20079;-63
2023/09/30 06:53:21;;;;;;;43.88;24.55;;;;;;;10.57;100.00;102513.91;5074027;28;20029;-65
2023/09/30 06:55:47;;;;;;;46.85;24.73;;;;;;;10.63;100.00;102518.50;5073848;28;20074;-65
2023/09/30 06:58:13;;;;;;;43.80;23.65;;;;;;;10.70;100.00;102522.19;5073860;28;20029;-67
2023/09/30 07:00:41;;;;;;;46.20;24.58;;;;;;;10.82;100.00;102539.34;5073936;28;20052;-68
2023/09/30 07:03:07;;;;;;;45.92;25.38;;;;;;;10.88;100.00;102532.44;5069629;28;20052;-69
2023/09/30 07:05:33;;;;;;;44.90;24.45;;;;;;;10.90;100.00;102546.63;5073551;28;20086;-68
2023/09/30 07:07:58;;;;;;;42.45;23.65;;;;;;;10.93;100.00;102536.13;5073755;28;20032;-69
2023/09/30 07:10:23;;;;;;;39.85;22.63;;;;;;;10.99;100.00;102542.50;5073389;28;20375;-69
2023/09/30 07:12:49;;;;;;;39.47;22.45;;;;;;;11.07;100.00;102541.84;5072077;28;20023;-68
2023/09/30 07:15:14;;;;;;;38.28;22.15;;;;;;;11.13;100.00;102550.84;5073477;28;20097;-69
2023/09/30 07:17:40;;;;;;;39.08;21.98;;;;;;;11.27;100.00;102545.03;5073500;28;20183;-70
2023/09/30 07:20:07;;;;;;;37.40;20.90;;;;;;;11.43;100.00;102541.97;5073318;28;20025;-69
2023/09/30 07:22:33;;;;;;;36.22;20.48;;;;;;;11.55;100.00;102543.16;5066634;28;20029;-66
2023/09/30 07:24:58;;;;;;;36.47;19.45;;;;;;;11.74;100.00;102558.72;5063755;28;20112;-68
2023/09/30 07:27:24;;;;;;;36.00;18.65;;;;;;;11.97;100.00;102566.38;5067045;28;20120;-70
2023/09/30 07:29:50;;;;;;;34.42;18.38;;;;;;;12.37;100.00;102573.59;5068749;28;20036;-69
2023/09/30 07:32:16;;;;;;;34.22;17.17;;;;;;;12.67;100.00;102592.88;5065922;28;20082;-67
2023/09/30 07:34:41;;;;;;;31.75;16.45;;;;;;;12.89;100.00;102597.78;5072920;28;20072;-64
2023/09/30 07:37:07;;;;;;;31.17;16.25;;;;;;;12.89;100.00;102600.44;5068294;28;20086;-63
2023/09/30 07:39:32;;;;;;;30.48;15.07;;;;;;;12.98;100.00;102601.53;5072493;28;20064;-61
2023/09/30 07:41:57;;;;;;;31.42;15.02;;;;;;;13.05;100.00;102611.44;5071614;28;20024;-61
2023/09/30 07:44:23;;;;;;;29.85;14.40;;;;;;;13.13;100.00;102611.59;5072488;28;20032;-60
2023/09/30 07:46:48;;;;;;;29.33;13.50;;;;;;;13.32;100.00;102611.09;5072658;28;20541;-61
2023/09/30 07:49:14;;;;;;;28.50;13.45;;;;;;;13.47;100.00;102601.69;5072894;28;20483;-64
2023/09/30 07:51:39;;;;;;;30.10;13.23;;;;;;;13.59;100.00;102592.22;5072051;28;20062;-65
2023/09/30 07:54:05;;;;;;;30.52;13.77;;;;;;;13.84;100.00;102595.34;5072470;28;20032;-63
2023/09/30 07:56:31;;;;;;;27.52;12.55;;;;;;;14.07;100.00;102598.41;5072677;28;20107;-69
2023/09/30 07:58:56;;;;;;;28.83;12.45;;;;;;;14.33;100.00;102590.00;5072541;28;20116;-68
2023/09/30 08:01:21;;;;;;;25.95;11.63;;;;;;;14.32;100.00;102596.19;5072469;28;20025;-68
2023/09/30 08:03:47;;;;;;;26.67;11.60;;;;;;;14.34;100.00;102590.88;5072176;28;20032;-61
2023/09/30 08:06:13;;;;;;;26.27;11.00;;;;;;;14.47;100.00;102592.88;5072697;28;20029;-61
2023/09/30 08:08:39;;;;;;;26.33;11.38;;;;;;;14.73;100.00;102576.44;5072379;28;20487;-62
2023/09/30 08:11:05;;;;;;;25.65;11.00;;;;;;;14.97;100.00;102575.91;5072670;28;20391;-61
2023/09/30 08:13:32;;;;;;;24.10;10.10;;;;;;;15.12;100.00;102573.41;5071983;28;20033;-63
2023/09/30 08:15:58;;;;;;;26.92;10.50;;;;;;;15.27;100.00;102559.41;5072209;28;20021;-63
2023/09/30 08:18:23;;;;;;;24.85;10.32;;;;;;;15.46;100.00;102544.50;5072543;28;20495;-61
2023/09/30 08:20:49;;;;;;;25.15;9.93;;;;;;;15.84;100.00;102540.47;5072287;28;20036;-61
2023/09/30 08:23:14;;;;;;;24.00;9.43;;;;;;;16.18;100.00;102541.69;5072487;28;20028;-62
2023/09/30 08:25:40;;;;;;;23.02;8.73;;;;;;;16.19;100.00;102531.88;5071885;28;20031;-67
2023/09/30 08:28:05;;;;;;;25.83;9.55;;;;;;;15.94;100.00;102525.47;5072111;28;20044;-70
2023/09/30 08:30:33;;;;;;;23.67;9.60;;;;;;;15.85;100.00;102528.94;5072664;28;20179;-68
2023/09/30 08:32:59;;;;;;;25.75;9.52;;;;;;;15.57;100.00;102527.78;5072645;28;20462;-68
2023/09/30 08:35:24;;;;;;;24.55;9.60;;;;;;;15.50;100.00;102533.00;5071962;28;20116;-67
2023/09/30 08:37:50;;;;;;;23.23;9.63;;;;;;;15.47;100.00;102527.66;5071832;28;20388;-68
2023/09/30 08:40:20;;;;;;;25.55;9.85;;;;;;;15.72;100.00;102524.34;5072457;28;20032;-68
2023/09/30 08:42:51;;;;;;;24.05;9.40;;;;;;;15.69;100.00;102526.09;5072095;28;20029;-68
2023/09/30 08:45:17;;;;;;;21.77;8.60;;;;;;;15.88;100.00;102520.97;5072336;28;20028;-68
2023/09/30 08:47:42;;;;;;;24.38;9.25;;;;;;;16.13;100.00;102511.38;5072206;28;20027;-67
2023/09/30 08:50:10;;;;;;;23.50;9.70;;;;;;;16.44;100.00;102503.63;5072825;28;20391;-67
2023/09/30 08:52:37;;;;;;;23.13;8.63;;;;;;;16.69;100.00;102501.97;5075994;28;20522;-64
2023/09/30 08:55:03;;;;;;;22.73;9.25;;;;;;;16.74;100.00;102508.22;5076068;28;20025;-64
2023/09/30 08:57:29;;;;;;;24.95;8.80;;;;;;;17.00;100.00;102512.81;5075882;28;20045;-66
2023/09/30 08:59:55;;;;;;;22.85;8.85;;;;;;;17.29;100.00;102511.16;5075796;28;20029;-67
2023/09/30 09:02:20;;;;;;;22.05;8.65;;;;;;;17.46;100.00;102506.75;5075508;28;20036;-68
2023/09/30 09:04:46;;;;;;;22.23;8.80;;;;;;;17.75;100.00;102509.44;5075691;28;20025;-71
2023/09/30 09:07:12;;;;;;;22.20;8.70;;;;;;;17.92;100.00;102511.25;5073790;28;20028;-74
2023/09/30 09:09:38;;;;;;;22.88;8.38;;;;;;;18.10;100.00;102516.63;5071597;28;20104;-74
2023/09/30 09:12:04;;;;;;;21.30;8.30;;;;;;;18.12;100.00;102528.19;5069319;28;20136;-72
2023/09/30 09:14:40;;;;;;;22.27;8.38;;;;;;;18.14;100.00;102538.03;5071487;28;20025;-71
2023/09/30 09:17:07;;;;;;;21.85;8.15;;;;;;;18.22;100.00;102541.59;5075965;28;20117;-73
2023/09/30 09:19:33;;;;;;;23.33;9.13;;;;;;;18.35;100.00;102532.66;5075283;28;20028;-71
2023/09/30 09:22:00;;;;;;;22.05;8.48;;;;;;;18.59;100.00;102536.16;5075507;28;20040;-70
2023/09/30 09:24:47;;;;;;;21.20;8.27;;;;;;;19.15;100.00;102544.94;5075615;28;20476;-74
2023/09/30 09:27:16;;;;;;;21.58;8.40;;;;;;;19.89;100.00;102546.31;5074939;28;20514;-69
2023/09/30 09:29:44;;;;;;;19.60;7.50;;;;;;;19.96;100.00;102551.59;5075242;28;20031;-70
2023/09/30 09:32:14;;;;;;;22.33;8.20;;;;;;;20.23;100.00;102562.13;5075172;28;20110;-71
2023/09/30 09:34:41;;;;;;;21.33;7.82;;;;;;;20.32;100.00;102572.78;5074309;28;20036;-73
2023/09/30 09:37:18;;;;;;;21.20;7.90;;;;;;;20.20;100.00;102565.75;5075087;28;20036;-73
2023/09/30 09:39:53;;;;;;;21.00;7.43;;;;;;;20.27;100.00;102564.78;5074491;28;20021;-70
2023/09/30 09:42:29;;;;;;;20.60;7.70;;;;;;;20.65;100.00;102557.22;5075262;28;20375;-75
2023/09/30 09:45:00;;;;;;;22.60;7.70;;;;;;;21.40;100.00;102563.50;5074925;28;20021;-69
2023/09/30 09:47:26;;;;;;;21.50;7.97;;;;;;;21.65;100.00;102560.50;5075009;28;20147;-68
2023/09/30 09:49:53;;;;;;;21.65;8.38;;;;;;;21.80;100.00;102565.66;5074911;28;20028;-61
2023/09/30 09:52:19;;;;;;;21.13;8.00;;;;;;;22.03;100.00;102570.69;5074478;28;20032;-65
2023/09/30 09:54:46;;;;;;;22.00;8.38;;;;;;;21.96;100.00;102565.41;5075062;28;20102;-64
2023/09/30 09:57:12;;;;;;;22.13;8.43;;;;;;;22.19;100.00;102567.72;5074639;28;20039;-62
2023/09/30 09:59:42;;;;;;;20.98;8.02;;;;;;;22.42;100.00;102564.66;5074640;28;20028;-61
2023/09/30 10:02:15;;;;;;;22.65;9.02;;;;;;;22.53;100.00;102575.22;5074031;28;20120;-61
2023/09/30 10:04:47;;;;;;;21.50;8.55;;;;;;;22.16;100.00;102567.78;5073130;28;20032;-62
2023/09/30 10:07:36;;;;;;;22.23;8.77;;;;;;;22.47;100.00;102573.53;5074617;28;20035;-62
2023/09/30 10:10:08;;;;;;;21.75;9.00;;;;;;;22.32;100.00;102568.38;5072906;28;20029;-68
2023/09/30 10:12:39;;;;;;;21.38;9.10;;;;;;;23.22;100.00;102578.38;5074678;28;20483;-69
2023/09/30 10:15:26;;;;;;;21.70;9.10;;;;;;;23.44;100.00;102592.28;5074065;28;20036;-65
2023/09/30 10:18:12;;;;;;;22.20;8.40;;;;;;;23.16;100.00;102592.88;5072193;28;20518;-67
2023/09/30 10:20:44;;;;;;;21.92;9.32;;;;;;;22.41;100.00;102595.19;5070384;28;20025;-69
2023/09/30 10:23:25;;;;;;;21.25;8.52;;;;;;;21.85;100.00;102582.63;5071226;28;20438;-68
2023/09/30 10:26:11;;;;;;;20.80;8.57;;;;;;;22.22;100.00;102582.03;5072441;28;20076;-68
2023/09/30 10:28:49;;;;;;;20.50;8.20;;;;;;;22.06;100.00;102570.63;5070277;28;20052;-68
2023/09/30 10:31:18;;;;;;;20.30;7.90;;;;;;;21.87;100.00;102561.06;5071342;28;20045;-67
2023/09/30 10:34:01;;;;;;;21.02;8.05;;;;;;;22.25;100.00;102563.13;5074193;28;20033;-65
2023/09/30 10:36:40;;;;;;;19.92;7.70;;;;;;;23.13;100.00;102566.00;5074177;28;20099;-69
2023/09/30 10:39:13;;;;;;;21.45;7.65;;;;;;;23.82;100.00;102560.81;5074358;28;20064;-69
2023/09/30 10:41:38;;;;;;;19.67;6.93;;;;;;;22.73;100.00;102556.88;5070482;28;20028;-68
2023/09/30 10:44:22;;;;;;;21.00;7.10;;;;;;;22.36;100.00;102543.22;5074148;28;20024;-69
2023/09/30 10:46:48;;;;;;;20.17;6.95;;;;;;;23.23;100.00;102551.38;5071314;28;20056;-68
2023/09/30 10:49:31;;;;;;;20.75;7.18;;;;;;;22.52;100.00;102547.38;5073831;28;20533;-68
2023/09/30 10:51:59;;;;;;;18.33;6.07;;;;;;;21.70;100.00;102531.75;5074178;28;20123;-68
2023/09/30 10:54:30;;;;;;;19.90;6.30;;;;;;;22.38;100.00;102534.19;5073980;28;20021;-68
2023/09/30 10:56:56;;;;;;;18.60;5.57;;;;;;;21.73;100.00;102532.56;5073956;28;20476;-69
2023/09/30 10:59:23;;;;;;;18.20;5.63;;;;;;;20.78;100.00;102529.38;5074032;28;20352;-69
2023/09/30 11:01:50;;;;;;;18.02;5.50;;;;;;;20.37;100.00;102522.59;5073697;28;20052;-62
2023/09/30 11:04:15;;;;;;;17.92;5.60;;;;;;;19.84;100.00;102511.47;5073891;28;20119;-67
2023/09/30 11:06:42;;;;;;;19.33;5.10;;;;;;;19.56;100.00;102505.41;5073564;28;20067;-65